Time;durP1;ratioP1;P1;durP2;ratioP2;P2;SDS_P1;SDS_P2;PMS_P1;PMS_P2;Temp;Humidity;BMP_temperature;BMP_pressure;BME280_temperature;BME280_humidity;BME280_pressure;Samples;Min_cycle;Max_cycle;Signal;HPM_P1;HPM_P2
2022/07/21 00:01:30;;;;;;;9.38;7.47;;;23.90;99.90;;;;;;7397195;19;20590;-78
2022/07/21 00:03:56;;;;;;;9.65;7.82;;;23.90;99.90;;;;;;7397101;19;20141;-80
2022/07/21 00:06:21;;;;;;;9.48;7.68;;;23.90;99.90;;;;;;7394313;19;20172;-78
2022/07/21 00:08:47;;;;;;;9.95;8.00;;;24.00;99.90;;;;;;7396335;19;20530;-78
2022/07/21 00:11:13;;;;;;;8.15;7.07;;;23.90;99.90;;;;;;7395394;19;20326;-78
2022/07/21 00:13:39;;;;;;;8.75;7.80;;;23.90;99.90;;;;;;7391419;19;20156;-79
2022/07/21 00:16:05;;;;;;;12.88;7.53;;;23.80;99.90;;;;;;7396368;19;20134;-76
2022/07/21 00:18:31;;;;;;;10.25;7.60;;;23.50;99.90;;;;;;7395337;19;20146;-77
2022/07/21 00:20:58;;;;;;;8.73;7.57;;;23.50;99.90;;;;;;7389496;19;20536;-77
2022/07/21 00:23:24;;;;;;;8.73;7.82;;;23.50;99.90;;;;;;7394852;19;20359;-77
2022/07/21 00:25:51;;;;;;;9.48;8.10;;;23.60;99.90;;;;;;7394837;19;20154;-77
2022/07/21 00:28:17;;;;;;;9.75;7.90;;;23.80;99.90;;;;;;7395260;19;20185;-78
2022/07/21 00:30:44;;;;;;;10.13;8.45;;;23.80;99.90;;;;;;7393675;19;20134;-78
2022/07/21 00:33:13;;;;;;;10.88;8.70;;;23.90;99.90;;;;;;7399140;19;20131;-78
2022/07/21 00:35:39;;;;;;;10.82;8.32;;;23.80;99.90;;;;;;7395452;19;20183;-77
2022/07/21 00:38:04;;;;;;;9.55;8.50;;;23.70;99.90;;;;;;7395476;19;20763;-77
2022/07/21 00:40:31;;;;;;;9.50;8.23;;;23.70;99.90;;;;;;7393869;19;20158;-77
2022/07/21 00:42:58;;;;;;;10.55;9.32;;;23.70;99.90;;;;;;7392630;19;20169;-77
2022/07/21 00:45:27;;;;;;;10.52;9.52;;;23.70;99.90;;;;;;7396886;19;20439;-77
2022/07/21 00:47:54;;;;;;;10.68;9.57;;;23.80;99.90;;;;;;7393427;19;20163;-77
2022/07/21 00:50:20;;;;;;;11.90;9.90;;;23.70;99.90;;;;;;7395239;19;20310;-77
2022/07/21 00:52:47;;;;;;;10.40;8.75;;;23.70;99.90;;;;;;7394139;19;20134;-77
2022/07/21 00:55:16;;;;;;;12.05;9.77;;;23.70;99.90;;;;;;7392157;19;20171;-78
2022/07/21 00:57:43;;;;;;;11.98;8.20;;;23.60;99.90;;;;;;7393901;19;20142;-77
2022/07/21 01:00:14;;;;;;;9.85;8.85;;;23.60;99.90;;;;;;7393195;19;20163;-78
2022/07/21 01:02:40;;;;;;;12.23;9.00;;;23.60;99.90;;;;;;7394852;19;20151;-77
2022/07/21 01:05:14;;;;;;;9.25;6.97;;;23.60;99.90;;;;;;7392503;19;20142;-77
2022/07/21 01:07:48;;;;;;;10.13;7.65;;;23.70;99.90;;;;;;7392782;19;20209;-77
2022/07/21 01:10:15;;;;;;;8.93;7.10;;;23.80;99.90;;;;;;7392494;19;20678;-77
2022/07/21 01:12:42;;;;;;;7.97;7.18;;;23.90;99.90;;;;;;7391196;19;20188;-77
2022/07/21 01:15:09;;;;;;;7.45;6.70;;;23.90;99.90;;;;;;7392809;19;20728;-78
2022/07/21 01:17:35;;;;;;;8.13;6.70;;;23.80;99.90;;;;;;7392226;19;20150;-77
2022/07/21 01:20:11;;;;;;;7.68;6.88;;;23.80;99.90;;;;;;7389370;19;20174;-77
2022/07/21 01:22:39;;;;;;;8.27;6.38;;;23.80;99.90;;;;;;7393801;19;20146;-77
2022/07/21 01:25:06;;;;;;;7.43;6.60;;;23.80;99.90;;;;;;7394385;19;20617;-77
2022/07/21 01:27:32;;;;;;;10.73;6.90;;;23.80;99.90;;;;;;7388635;19;20154;-77
2022/07/21 01:29:59;;;;;;;8.48;6.63;;;23.90;99.90;;;;;;7392996;19;20138;-77
2022/07/21 01:32:25;;;;;;;7.60;6.78;;;23.80;99.90;;;;;;7392085;19;20596;-78
2022/07/21 01:34:51;;;;;;;7.45;6.30;;;23.80;99.90;;;;;;7390300;19;20152;-78
2022/07/21 01:37:21;;;;;;;9.10;6.97;;;23.70;99.90;;;;;;7392606;19;20142;-77
2022/07/21 01:42:33;;;;;;;7.63;6.82;;;23.70;99.90;;;;;;7392053;19;20145;-77
2022/07/21 01:44:59;;;;;;;8.48;6.35;;;23.70;99.90;;;;;;7391121;19;20143;-77
2022/07/21 01:47:24;;;;;;;12.98;6.80;;;23.70;99.90;;;;;;7388734;19;20214;-77
2022/07/21 01:49:50;;;;;;;7.25;6.53;;;23.70;99.90;;;;;;7391866;19;20143;-76
2022/07/21 01:52:16;;;;;;;6.47;5.78;;;23.60;99.90;;;;;;7391754;19;20146;-77
2022/07/21 01:54:42;;;;;;;8.25;6.55;;;23.70;99.90;;;;;;7387585;19;20494;-77
2022/07/21 01:57:08;;;;;;;7.70;6.57;;;23.70;99.90;;;;;;7390956;19;20138;-76
2022/07/21 01:59:33;;;;;;;8.57;7.10;;;23.80;99.90;;;;;;7390052;19;20157;-76
2022/07/21 02:01:59;;;;;;;10.30;6.85;;;23.70;99.90;;;;;;7393423;19;20206;-76
2022/07/21 02:04:25;;;;;;;7.20;6.45;;;23.70;99.90;;;;;;7391763;19;20139;-77
2022/07/21 02:06:51;;;;;;;7.45;6.43;;;23.70;99.90;;;;;;7390274;19;20118;-78
2022/07/21 02:09:17;;;;;;;6.07;5.40;;;23.80;99.90;;;;;;7390102;19;20647;-76
2022/07/21 02:11:42;;;;;;;7.68;6.10;;;23.70;99.90;;;;;;7390683;19;20166;-76
2022/07/21 02:14:08;;;;;;;7.80;5.82;;;23.70;99.90;;;;;;7390949;19;20277;-77
2022/07/21 02:16:34;;;;;;;10.15;6.47;;;23.60;99.90;;;;;;7390965;19;21006;-76
2022/07/21 02:19:00;;;;;;;7.35;6.32;;;23.50;99.90;;;;;;7391528;19;20179;-76
2022/07/21 02:21:26;;;;;;;6.53;5.82;;;23.50;99.90;;;;;;7385487;19;20170;-78
2022/07/21 02:23:52;;;;;;;8.43;6.43;;;23.50;99.90;;;;;;7390564;19;20584;-78
2022/07/21 02:26:18;;;;;;;7.25;6.32;;;23.40;99.90;;;;;;7390256;19;20462;-77
2022/07/21 02:28:44;;;;;;;8.15;6.28;;;23.30;99.90;;;;;;7388860;19;20161;-78
2022/07/21 02:31:09;;;;;;;7.45;6.15;;;23.30;99.90;;;;;;7392533;19;21153;-78
2022/07/21 02:33:35;;;;;;;9.20;6.75;;;23.30;99.90;;;;;;7390667;19;20142;-77
2022/07/21 02:36:01;;;;;;;8.60;6.38;;;23.30;99.90;;;;;;7389002;19;20137;-78
2022/07/21 02:38:27;;;;;;;7.03;6.32;;;23.20;99.90;;;;;;7390707;19;20150;-79
2022/07/21 02:40:53;;;;;;;6.70;5.63;;;23.20;99.90;;;;;;7390117;19;20309;-78
2022/07/21 02:43:19;;;;;;;6.55;5.85;;;23.20;99.90;;;;;;7386971;19;20141;-78
2022/07/21 02:45:44;;;;;;;9.80;5.88;;;23.30;99.90;;;;;;7389847;19;20644;-79
2022/07/21 02:48:12;;;;;;;6.95;5.70;;;23.20;99.90;;;;;;7388527;19;20170;-80
2022/07/21 02:50:42;;;;;;;5.50;4.97;;;23.20;99.90;;;;;;7390786;19;20154;-79
2022/07/21 02:53:19;;;;;;;7.88;5.15;;;23.10;99.90;;;;;;7389803;19;20615;-78
2022/07/21 02:55:51;;;;;;;6.32;5.25;;;23.00;99.90;;;;;;7391119;19;20166;-77
2022/07/21 02:58:21;;;;;;;7.85;5.72;;;23.10;99.90;;;;;;7390615;19;20894;-77
2022/07/21 03:00:55;;;;;;;6.47;5.80;;;23.00;99.90;;;;;;7390412;19;20154;-78
2022/07/21 03:03:23;;;;;;;6.68;5.07;;;23.10;99.90;;;;;;7389367;19;20151;-78
2022/07/21 03:05:49;;;;;;;6.55;5.45;;;23.20;99.90;;;;;;7392961;19;20151;-78
2022/07/21 03:08:16;;;;;;;7.15;5.45;;;23.20;99.90;;;;;;7397994;19;20138;-78
2022/07/21 03:10:42;;;;;;;6.95;6.25;;;23.20;99.90;;;;;;7397714;19;20222;-77
2022/07/21 03:13:09;;;;;;;8.13;6.10;;;23.20;99.90;;;;;;7398857;19;20202;-78
2022/07/21 03:15:35;;;;;;;10.50;6.40;;;23.20;99.90;;;;;;7399280;19;20158;-78
2022/07/21 03:18:01;;;;;;;8.82;6.32;;;23.20;99.90;;;;;;7401418;19;20640;-78
2022/07/21 03:20:30;;;;;;;6.63;5.50;;;23.10;99.90;;;;;;7396801;19;20684;-78
2022/07/21 03:22:56;;;;;;;7.15;5.35;;;23.00;99.90;;;;;;7398071;19;20658;-77
2022/07/21 03:25:22;;;;;;;7.93;5.65;;;23.10;99.90;;;;;;7399255;19;20601;-78
2022/07/21 03:27:49;;;;;;;6.50;5.38;;;23.10;99.90;;;;;;7398150;19;20609;-77
2022/07/21 03:30:16;;;;;;;6.20;5.38;;;23.10;99.90;;;;;;7399147;19;20615;-76
2022/07/21 03:32:42;;;;;;;6.45;5.53;;;23.20;99.90;;;;;;7398746;19;20130;-78
2022/07/21 03:35:10;;;;;;;5.90;4.80;;;23.20;99.90;;;;;;7401843;19;20134;-77
2022/07/21 03:37:47;;;;;;;5.57;4.97;;;23.10;99.90;;;;;;7401858;19;20228;-78
2022/07/21 03:40:15;;;;;;;6.72;5.25;;;23.20;99.90;;;;;;7400067;19;20134;-78
2022/07/21 03:42:42;;;;;;;5.80;4.78;;;23.20;99.90;;;;;;7399526;19;20138;-77
2022/07/21 03:45:09;;;;;;;7.10;4.68;;;23.20;99.90;;;;;;7399714;19;20438;-77
2022/07/21 03:47:35;;;;;;;6.80;5.55;;;23.20;99.90;;;;;;7398336;19;20146;-77
2022/07/21 03:50:01;;;;;;;5.65;4.88;;;23.20;99.90;;;;;;7397772;19;20163;-78
2022/07/21 03:52:27;;;;;;;5.25;4.70;;;23.10;99.90;;;;;;7395108;19;20146;-78
2022/07/21 03:55:07;;;;;;;6.20;4.40;;;23.10;99.90;;;;;;7395080;19;20148;-78
2022/07/21 03:58:06;;;;;;;5.50;5.00;;;23.20;99.90;;;;;;7395384;19;20161;-78
2022/07/21 04:00:38;;;;;;;7.97;5.80;;;23.10;99.90;;;;;;7394146;19;20656;-77
2022/07/21 04:03:05;;;;;;;5.63;4.50;;;23.10;99.90;;;;;;7396633;19;20557;-77
2022/07/21 04:05:31;;;;;;;5.40;4.90;;;23.10;99.90;;;;;;7395671;19;20642;-77
2022/07/21 04:07:57;;;;;;;5.38;4.88;;;23.10;99.90;;;;;;7395464;19;20161;-77
2022/07/21 04:10:26;;;;;;;5.65;5.15;;;23.10;99.90;;;;;;7396911;19;20155;-78
2022/07/21 04:12:52;;;;;;;6.32;5.20;;;23.10;99.90;;;;;;7395936;19;20142;-78
2022/07/21 04:15:18;;;;;;;7.07;5.57;;;23.00;99.90;;;;;;7395449;19;20194;-77
2022/07/21 04:17:45;;;;;;;6.38;5.78;;;23.10;99.90;;;;;;7390701;19;20137;-78
2022/07/21 04:20:12;;;;;;;7.28;6.00;;;23.10;99.90;;;;;;7393333;19;20178;-77
2022/07/21 04:22:38;;;;;;;8.43;5.80;;;23.10;99.90;;;;;;7395792;19;20146;-77
2022/07/21 04:25:05;;;;;;;6.60;5.55;;;23.10;99.90;;;;;;7392957;19;20145;-78
2022/07/21 04:27:32;;;;;;;7.63;5.70;;;23.20;99.90;;;;;;7392146;19;20601;-75
2022/07/21 04:29:57;;;;;;;8.40;6.05;;;23.20;99.90;;;;;;7394564;19;20131;-76
2022/07/21 04:32:23;;;;;;;7.65;5.70;;;23.10;99.90;;;;;;7392608;19;20225;-78
2022/07/21 04:34:49;;;;;;;7.68;5.65;;;22.90;99.90;;;;;;7396331;19;20150;-77
2022/07/21 04:37:15;;;;;;;7.82;5.55;;;23.00;99.90;;;;;;7391485;19;20142;-78
2022/07/21 04:39:41;;;;;;;6.38;5.38;;;23.00;99.90;;;;;;7395244;19;20147;-77
2022/07/21 04:42:07;;;;;;;6.15;5.30;;;23.00;99.90;;;;;;7394486;19;20450;-77
2022/07/21 04:44:32;;;;;;;6.55;5.15;;;23.00;99.90;;;;;;7395273;19;20134;-76
2022/07/21 04:46:58;;;;;;;7.53;5.88;;;23.10;99.90;;;;;;7391735;19;20139;-76
2022/07/21 04:49:24;;;;;;;6.07;5.07;;;23.20;99.90;;;;;;7392952;19;20140;-76
2022/07/21 04:51:50;;;;;;;7.18;5.68;;;23.10;99.90;;;;;;7393941;19;20156;-78
2022/07/21 04:54:16;;;;;;;6.45;4.95;;;23.20;99.90;;;;;;7394344;19;20151;-76
2022/07/21 04:56:42;;;;;;;6.68;5.28;;;23.10;99.90;;;;;;7396190;19;20139;-77
2022/07/21 04:59:08;;;;;;;6.78;5.57;;;23.10;99.90;;;;;;7394168;19;20150;-78
2022/07/21 05:01:35;;;;;;;6.28;5.50;;;23.10;99.90;;;;;;7395248;19;20176;-76
2022/07/21 05:04:01;;;;;;;7.43;5.75;;;23.20;99.90;;;;;;7394083;19;20150;-76
2022/07/21 05:06:27;;;;;;;7.07;5.15;;;23.20;99.90;;;;;;7392650;19;20130;-76
2022/07/21 05:08:52;;;;;;;6.57;5.65;;;23.30;99.90;;;;;;7393979;19;20163;-77
2022/07/21 05:11:18;;;;;;;7.88;5.38;;;23.20;99.90;;;;;;7393823;19;20166;-76
2022/07/21 05:13:44;;;;;;;5.97;5.10;;;23.20;99.90;;;;;;7393960;19;20266;-79
2022/07/21 05:16:10;;;;;;;6.07;5.30;;;23.10;99.90;;;;;;7393275;19;20266;-78
2022/07/21 05:18:36;;;;;;;6.63;5.03;;;23.10;99.90;;;;;;7392226;19;20138;-76
2022/07/21 05:21:02;;;;;;;6.97;5.63;;;23.10;99.90;;;;;;7392012;19;20174;-77
2022/07/21 05:23:28;;;;;;;6.72;5.38;;;22.90;99.90;;;;;;7395128;19;20127;-77
2022/07/21 05:25:54;;;;;;;6.10;5.45;;;23.00;99.90;;;;;;7388579;19;20153;-77
2022/07/21 05:28:19;;;;;;;6.50;5.57;;;23.10;99.90;;;;;;7392958;19;20251;-76
2022/07/21 05:30:45;;;;;;;6.97;5.50;;;23.10;99.90;;;;;;7388169;19;20131;-77
2022/07/21 05:33:11;;;;;;;7.35;6.20;;;23.20;99.90;;;;;;7396542;19;20181;-75
2022/07/21 05:35:37;;;;;;;7.72;5.28;;;23.20;99.90;;;;;;7396653;19;20168;-76
2022/07/21 05:38:03;;;;;;;7.35;5.35;;;23.20;99.90;;;;;;7390106;19;20198;-76
2022/07/21 05:40:29;;;;;;;6.10;5.50;;;23.20;99.90;;;;;;7397503;19;20225;-77
2022/07/21 05:42:55;;;;;;;30.08;22.50;;;23.10;99.90;;;;;;7391816;19;20620;-75
2022/07/21 05:45:20;;;;;;;12.55;9.55;;;23.20;99.90;;;;;;7388700;19;20138;-76
2022/07/21 05:47:46;;;;;;;6.93;5.43;;;23.30;99.90;;;;;;7390730;19;20146;-75
2022/07/21 05:50:12;;;;;;;6.45;5.82;;;23.10;99.90;;;;;;7391477;19;20137;-76
2022/07/21 05:52:38;;;;;;;6.45;5.78;;;23.20;99.90;;;;;;7390812;19;20637;-76
2022/07/21 05:55:05;;;;;;;5.85;5.25;;;23.30;99.90;;;;;;7390059;19;20229;-75
2022/07/21 05:57:30;;;;;;;5.30;4.80;;;23.30;99.90;;;;;;7390879;19;20146;-76
2022/07/21 05:59:57;;;;;;;5.55;4.95;;;23.30;99.90;;;;;;7389846;19;20542;-76
2022/07/21 06:02:23;;;;;;;6.13;5.40;;;23.10;99.90;;;;;;7390131;19;20600;-76
2022/07/21 06:04:49;;;;;;;7.82;4.93;;;23.30;99.90;;;;;;7389715;19;20175;-76
2022/07/21 06:07:15;;;;;;;7.22;5.55;;;23.40;99.90;;;;;;7385204;19;20964;-75
2022/07/21 06:09:40;;;;;;;7.35;5.68;;;23.40;99.90;;;;;;7389896;19;20160;-75
2022/07/21 06:12:06;;;;;;;5.90;5.32;;;23.50;99.90;;;;;;7392400;19;20142;-76
2022/07/21 06:14:32;;;;;;;10.15;8.23;;;23.40;99.90;;;;;;7391019;19;20565;-78
2022/07/21 06:16:58;;;;;;;7.82;5.85;;;23.40;99.90;;;;;;7385887;19;20134;-77
2022/07/21 06:19:24;;;;;;;6.93;6.22;;;23.60;99.90;;;;;;7385704;19;20131;-77
2022/07/21 06:21:50;;;;;;;6.68;5.97;;;23.50;99.90;;;;;;7386005;19;20135;-78
2022/07/21 06:24:16;;;;;;;7.13;5.70;;;23.70;99.90;;;;;;7386498;19;20561;-78
2022/07/21 06:26:42;;;;;;;9.88;5.45;;;23.70;99.90;;;;;;7390099;19;20225;-76
2022/07/21 06:29:08;;;;;;;7.05;5.22;;;24.20;99.90;;;;;;7387457;19;20146;-76
2022/07/21 06:31:34;;;;;;;5.88;5.35;;;24.40;99.90;;;;;;7386709;19;20630;-75
2022/07/21 06:34:00;;;;;;;7.13;5.25;;;24.40;99.90;;;;;;7386831;19;20517;-76
2022/07/21 06:36:26;;;;;;;6.05;5.38;;;24.60;99.90;;;;;;7386227;19;20131;-78
2022/07/21 06:38:51;;;;;;;7.20;6.30;;;24.60;99.90;;;;;;7395737;19;20142;-77
2022/07/21 06:41:17;;;;;;;10.63;8.15;;;24.30;99.90;;;;;;7391028;19;20159;-76
2022/07/21 06:43:43;;;;;;;6.53;5.38;;;24.20;99.90;;;;;;7390204;19;20141;-76
2022/07/21 06:46:09;;;;;;;6.47;5.70;;;23.70;99.90;;;;;;7389873;19;20561;-76
2022/07/21 06:48:35;;;;;;;6.85;5.43;;;23.90;99.90;;;;;;7385578;19;20288;-76
2022/07/21 06:51:01;;;;;;;8.10;7.30;;;24.00;99.90;;;;;;7387782;19;20130;-77
2022/07/21 06:53:26;;;;;;;9.02;6.90;;;25.00;99.90;;;;;;7389791;19;20138;-76
2022/07/21 06:55:52;;;;;;;7.65;5.32;;;25.80;99.90;;;;;;7389558;19;20135;-76
2022/07/21 06:58:21;;;;;;;5.35;4.85;;;26.90;99.90;;;;;;7386092;19;20127;-76
2022/07/21 07:00:49;;;;;;;6.18;5.38;;;27.40;99.90;;;;;;7381129;19;20156;-76
2022/07/21 07:03:17;;;;;;;5.88;4.60;;;27.30;99.90;;;;;;7389368;19;20777;-75
2022/07/21 07:05:45;;;;;;;5.55;5.00;;;27.40;99.90;;;;;;7386936;19;20153;-76
2022/07/21 07:08:12;;;;;;;5.65;5.03;;;27.70;99.90;;;;;;7388025;19;20142;-75
2022/07/21 07:10:41;;;;;;;5.75;5.18;;;28.00;99.90;;;;;;7386430;19;20158;-75
2022/07/21 07:13:08;;;;;;;6.68;5.00;;;28.40;99.90;;;;;;7386797;19;20170;-76
2022/07/21 07:15:34;;;;;;;6.47;4.70;;;28.40;99.90;;;;;;7387420;19;20171;-76
2022/07/21 07:17:59;;;;;;;6.65;5.50;;;28.40;99.90;;;;;;7389961;19;20138;-74
2022/07/21 07:20:25;;;;;;;8.95;5.30;;;28.30;99.90;;;;;;7385182;19;20570;-75
2022/07/21 07:22:51;;;;;;;5.85;4.75;;;28.10;99.90;;;;;;7388599;19;20646;-76
2022/07/21 07:25:17;;;;;;;6.33;4.63;;;27.80;99.90;;;;;;7385882;19;20165;-75
2022/07/21 07:27:45;;;;;;;6.07;5.32;;;27.90;99.90;;;;;;7382391;19;20237;-75
2022/07/21 07:30:12;;;;;;;5.18;4.68;;;28.10;99.90;;;;;;7384079;19;20146;-76
2022/07/21 07:32:38;;;;;;;7.78;4.57;;;27.70;99.90;;;;;;7388949;19;20153;-76
2022/07/21 07:35:04;;;;;;;5.93;4.75;;;27.30;99.90;;;;;;7390268;19;20149;-75
2022/07/21 07:37:30;;;;;;;5.90;5.30;;;27.30;99.90;;;;;;7386600;19;20224;-76
2022/07/21 07:39:56;;;;;;;7.22;4.95;;;27.70;99.90;;;;;;7384564;19;20142;-76
2022/07/21 07:42:22;;;;;;;5.57;4.70;;;28.10;99.90;;;;;;7386002;19;20644;-76
2022/07/21 07:44:47;;;;;;;7.53;5.80;;;28.50;99.90;;;;;;7386167;19;20485;-77
2022/07/21 07:47:15;;;;;;;7.35;5.03;;;28.30;99.90;;;;;;7383535;19;20171;-76
2022/07/21 07:49:40;;;;;;;6.10;5.10;;;28.60;99.90;;;;;;7385006;19;20480;-76
2022/07/21 07:52:06;;;;;;;6.15;4.97;;;28.90;99.90;;;;;;7387173;19;20138;-77
2022/07/21 07:54:32;;;;;;;6.50;4.78;;;29.20;99.90;;;;;;7392407;19;20162;-75
2022/07/21 07:56:58;;;;;;;6.05;4.35;;;28.90;99.90;;;;;;7401947;19;20131;-74
2022/07/21 07:59:23;;;;;;;7.63;5.30;;;28.60;99.90;;;;;;7393066;19;20510;-75
2022/07/21 08:01:49;;;;;;;4.47;4.07;;;28.90;99.90;;;;;;7396261;19;20150;-75
2022/07/21 08:04:15;;;;;;;4.45;3.97;;;29.20;99.90;;;;;;7393603;19;20572;-76
2022/07/21 08:06:41;;;;;;;5.18;4.15;;;28.60;99.90;;;;;;7387591;19;20138;-76
2022/07/21 08:09:08;;;;;;;4.82;4.10;;;28.70;99.90;;;;;;7393043;19;20633;-77
2022/07/21 08:11:34;;;;;;;6.43;4.43;;;29.00;99.90;;;;;;7392432;19;20612;-76
2022/07/21 08:14:00;;;;;;;4.10;3.55;;;28.80;99.90;;;;;;7393107;19;20157;-76
2022/07/21 08:16:26;;;;;;;5.18;3.75;;;29.00;99.90;;;;;;7391043;19;20130;-77
2022/07/21 08:18:52;;;;;;;4.45;4.00;;;29.00;99.90;;;;;;7392609;19;20506;-76
2022/07/21 08:21:18;;;;;;;4.32;3.90;;;29.50;99.90;;;;;;7393368;19;20245;-76
2022/07/21 08:23:43;;;;;;;5.32;4.78;;;29.70;99.90;;;;;;7393709;19;20236;-76
2022/07/21 08:26:09;;;;;;;4.18;3.67;;;29.00;99.90;;;;;;7397375;19;20209;-76
2022/07/21 08:28:35;;;;;;;6.15;4.13;;;28.20;99.90;;;;;;7391813;19;20147;-76
2022/07/21 08:31:00;;;;;;;4.05;3.58;;;29.10;99.90;;;;;;7393198;19;20516;-76
2022/07/21 08:33:26;;;;;;;4.88;3.60;;;29.80;99.90;;;;;;7401748;19;20913;-79
2022/07/21 08:35:53;;;;;;;4.90;4.10;;;29.90;99.90;;;;;;7397289;19;20173;-76
2022/07/21 08:38:20;;;;;;;4.65;3.63;;;30.00;99.90;;;;;;7392006;19;20162;-77
2022/07/21 08:40:46;;;;;;;8.73;7.00;;;29.90;99.90;;;;;;7392774;19;20134;-75
2022/07/21 08:43:13;;;;;;;5.05;4.45;;;30.20;99.90;;;;;;7394506;19;20142;-76
2022/07/21 08:45:43;;;;;;;5.53;5.03;;;30.40;99.90;;;;;;7393406;19;20206;-75
2022/07/21 08:48:09;;;;;;;4.72;4.10;;;30.70;99.90;;;;;;7389919;19;20146;-75
2022/07/21 08:50:37;;;;;;;5.97;5.28;;;30.70;99.90;;;;;;7396352;19;20146;-74
2022/07/21 08:53:04;;;;;;;6.97;5.55;;;30.30;99.90;;;;;;7401602;19;20149;-76
2022/07/21 08:55:32;;;;;;;7.05;5.07;;;29.80;99.90;;;;;;7391782;19;20484;-76
2022/07/21 08:57:58;;;;;;;5.13;3.85;;;29.30;99.90;;;;;;7402044;19;20175;-76
2022/07/21 09:00:24;;;;;;;6.22;4.00;;;28.50;99.90;;;;;;7396792;19;20164;-75
2022/07/21 09:03:19;;;;;;;5.03;4.53;;;28.80;99.90;;;;;;7391512;19;20159;-77
2022/07/21 09:06:18;;;;;;;5.22;3.80;;;29.10;99.90;;;;;;7393486;19;20154;-75
2022/07/21 09:08:47;;;;;;;4.97;3.75;;;29.00;99.90;;;;;;7392656;19;20146;-77
2022/07/21 09:11:23;;;;;;;6.03;3.97;;;29.20;99.90;;;;;;7393793;19;20143;-76
2022/07/21 09:14:04;;;;;;;5.68;4.28;;;29.00;99.90;;;;;;7394040;19;20276;-76
2022/07/21 09:16:46;;;;;;;5.78;4.00;;;29.10;99.90;;;;;;7392395;19;20158;-77
2022/07/21 09:19:16;;;;;;;3.80;3.40;;;29.10;99.90;;;;;;7396008;19;20143;-77
2022/07/21 09:21:42;;;;;;;3.70;3.20;;;29.20;99.90;;;;;;7388485;19;20561;-77
2022/07/21 09:24:16;;;;;;;3.85;3.25;;;29.30;99.90;;;;;;7389606;19;20152;-77
2022/07/21 09:27:02;;;;;;;4.25;3.35;;;29.50;99.90;;;;;;7388551;19;20182;-77
2022/07/21 09:29:47;;;;;;;3.95;3.38;;;29.70;99.90;;;;;;7399144;19;20146;-75
2022/07/21 09:32:27;;;;;;;5.95;3.65;;;29.70;99.90;;;;;;7389530;19;20134;-76
2022/07/21 09:34:58;;;;;;;7.18;5.13;;;29.60;99.80;;;;;;7394687;19;20146;-77
2022/07/21 09:37:24;;;;;;;3.45;2.92;;;29.40;99.90;;;;;;7392465;19;20150;-75
2022/07/21 09:39:54;;;;;;;5.57;3.55;;;29.50;99.70;;;;;;7393255;19;20466;-77
2022/07/21 09:42:28;;;;;;;3.50;3.20;;;29.40;99.00;;;;;;7388318;19;20181;-75
2022/07/21 09:44:56;;;;;;;3.58;3.10;;;29.40;99.60;;;;;;7391089;19;20130;-77
2022/07/21 09:47:25;;;;;;;5.10;3.75;;;29.20;99.40;;;;;;7386710;19;20150;-77
2022/07/21 09:49:51;;;;;;;3.97;2.83;;;29.50;99.60;;;;;;7390710;19;20134;-77
2022/07/21 09:52:22;;;;;;;4.53;3.47;;;29.60;99.00;;;;;;7387256;19;20147;-77
2022/07/21 09:54:49;;;;;;;4.88;4.18;;;29.40;99.50;;;;;;7387100;19;20134;-77
2022/07/21 09:57:16;;;;;;;6.03;3.53;;;29.30;99.80;;;;;;7388529;19;20472;-76
2022/07/21 09:59:47;;;;;;;6.97;4.65;;;29.30;99.50;;;;;;7389064;19;20163;-78
2022/07/21 10:02:32;;;;;;;5.30;4.80;;;29.50;99.60;;;;;;7387306;19;20170;-77
2022/07/21 10:05:01;;;;;;;4.47;4.05;;;29.60;99.00;;;;;;7385821;19;20132;-76
2022/07/21 10:07:28;;;;;;;5.38;3.95;;;29.70;99.50;;;;;;7385487;19;20241;-75
2022/07/21 10:09:54;;;;;;;3.75;3.42;;;29.60;98.40;;;;;;7389426;19;20325;-76
2022/07/21 10:12:21;;;;;;;7.60;4.78;;;29.40;98.10;;;;;;7385965;19;20177;-76
2022/07/21 10:14:47;;;;;;;5.90;3.25;;;29.30;98.90;;;;;;7383813;19;20580;-76
2022/07/21 10:17:15;;;;;;;5.28;4.20;;;29.20;98.30;;;;;;7387942;19;20492;-75
2022/07/21 10:19:52;;;;;;;4.78;3.53;;;29.20;99.00;;;;;;7388156;19;20169;-75
2022/07/21 10:22:20;;;;;;;4.72;3.40;;;29.20;96.70;;;;;;7396735;19;20930;-76
2022/07/21 10:24:46;;;;;;;4.65;3.53;;;29.20;98.00;;;;;;7384100;19;20135;-76
2022/07/21 10:27:13;;;;;;;4.28;3.28;;;29.10;97.10;;;;;;7383862;19;20147;-76
2022/07/21 10:29:55;;;;;;;4.53;3.17;;;29.20;97.20;;;;;;7390310;19;20727;-76
2022/07/21 10:32:48;;;;;;;5.10;3.15;;;29.40;97.30;;;;;;7390215;19;20179;-76
2022/07/21 10:35:30;;;;;;;4.07;3.17;;;29.50;96.80;;;;;;7387443;19;20693;-77
2022/07/21 10:37:57;;;;;;;3.70;3.10;;;29.40;97.30;;;;;;7389821;19;20508;-75
2022/07/21 10:40:24;;;;;;;4.32;3.60;;;29.00;97.90;;;;;;7386151;19;20161;-76
2022/07/21 10:42:58;;;;;;;4.90;2.97;;;28.60;98.30;;;;;;7388435;19;20155;-76
2022/07/21 10:45:35;;;;;;;4.97;2.75;;;28.30;98.60;;;;;;7388085;19;20142;-76
2022/07/21 10:48:03;;;;;;;3.80;2.70;;;28.20;98.40;;;;;;7386584;19;20145;-74
2022/07/21 10:50:37;;;;;;;3.25;2.35;;;28.30;98.20;;;;;;7386951;19;20150;-76
2022/07/21 10:53:14;;;;;;;2.28;2.00;;;28.70;97.20;;;;;;7390108;19;20150;-76
2022/07/21 10:55:51;;;;;;;3.15;2.47;;;28.80;95.00;;;;;;7394958;19;20162;-77
2022/07/21 10:58:23;;;;;;;4.43;3.70;;;28.90;94.70;;;;;;7389121;19;20154;-76
2022/07/21 11:00:56;;;;;;;2.97;2.60;;;29.00;95.40;;;;;;7386849;19;20147;-75
2022/07/21 11:03:39;;;;;;;3.63;3.00;;;28.90;95.60;;;;;;7386442;19;20560;-76
2022/07/21 11:06:05;;;;;;;5.15;4.25;;;29.10;96.10;;;;;;7384954;19;20168;-76
2022/07/21 11:08:35;;;;;;;2.50;2.30;;;29.20;95.50;;;;;;7386536;19;20612;-77
2022/07/21 11:11:10;;;;;;;2.55;2.00;;;29.10;94.90;;;;;;7387092;19;20504;-77
2022/07/21 11:14:01;;;;;;;2.53;2.22;;;28.90;95.50;;;;;;7386562;19;20584;-77
2022/07/21 11:16:46;;;;;;;4.07;2.50;;;29.00;95.00;;;;;;7384046;19;20530;-76
2022/07/21 11:19:48;;;;;;;2.72;2.47;;;28.70;95.10;;;;;;7383855;19;20143;-77
2022/07/21 11:22:25;;;;;;;4.35;2.88;;;28.40;95.80;;;;;;7389539;19;20167;-78
2022/07/21 11:24:52;;;;;;;2.97;2.42;;;28.60;96.30;;;;;;7382831;19;20138;-76
2022/07/21 11:27:23;;;;;;;3.00;2.70;;;28.70;95.20;;;;;;7390745;19;20186;-76
2022/07/21 11:29:54;;;;;;;8.63;7.65;;;28.60;95.70;;;;;;7393298;19;20146;-76
2022/07/21 11:32:20;;;;;;;5.03;2.33;;;28.50;96.20;;;;;;7394347;19;20147;-77
2022/07/21 11:34:52;;;;;;;3.95;2.78;;;28.50;95.50;;;;;;7394956;19;20138;-76
2022/07/21 11:37:33;;;;;;;2.78;2.45;;;28.40;95.00;;;;;;7393687;19;20226;-76
2022/07/21 11:40:00;;;;;;;2.90;2.50;;;28.20;95.20;;;;;;7395622;19;20166;-76
2022/07/21 11:42:27;;;;;;;3.67;2.72;;;28.20;95.60;;;;;;7395110;19;20656;-76
2022/07/21 11:44:53;;;;;;;3.22;2.75;;;28.20;96.20;;;;;;7392389;19;20166;-78
2022/07/21 11:47:25;;;;;;;3.13;2.50;;;28.40;95.30;;;;;;7387001;19;20165;-78
2022/07/21 11:49:55;;;;;;;2.70;2.50;;;28.40;94.70;;;;;;7393789;19;20134;-77
2022/07/21 11:52:26;;;;;;;3.03;2.33;;;28.20;94.60;;;;;;7391948;19;20146;-77
2022/07/21 11:54:54;;;;;;;4.13;2.60;;;28.00;94.60;;;;;;7392448;19;20135;-78
2022/07/21 11:57:21;;;;;;;2.95;2.65;;;27.90;95.10;;;;;;7390941;19;20159;-78
2022/07/21 11:59:49;;;;;;;2.97;2.50;;;27.70;95.50;;;;;;7391081;19;20142;-77
2022/07/21 12:02:18;;;;;;;4.60;3.13;;;27.60;95.80;;;;;;7392395;19;20157;-78
2022/07/21 12:05:15;;;;;;;2.85;2.40;;;27.60;96.00;;;;;;7392618;19;20131;-77
2022/07/21 12:07:57;;;;;;;4.15;2.90;;;27.70;95.90;;;;;;7387720;19;20152;-78
2022/07/21 12:10:22;;;;;;;4.63;2.83;;;27.70;96.00;;;;;;7392617;19;20238;-78
2022/07/21 12:12:50;;;;;;;3.30;3.00;;;27.70;96.70;;;;;;7393946;19;20143;-77
2022/07/21 12:15:20;;;;;;;3.00;2.70;;;27.90;96.40;;;;;;7395692;19;20126;-78
2022/07/21 12:17:47;;;;;;;3.55;3.00;;;28.10;95.70;;;;;;7391766;19;20179;-78
2022/07/21 12:20:14;;;;;;;4.18;2.70;;;28.30;94.20;;;;;;7390021;19;20166;-77
2022/07/21 12:22:44;;;;;;;3.08;2.50;;;28.40;94.60;;;;;;7394018;19;20130;-77
2022/07/21 12:25:12;;;;;;;3.33;2.80;;;28.60;95.50;;;;;;7389833;19;20601;-77
2022/07/21 12:27:40;;;;;;;3.33;3.03;;;28.70;94.80;;;;;;7391594;19;20146;-78
2022/07/21 12:30:08;;;;;;;3.67;3.22;;;28.80;94.90;;;;;;7389431;19;20142;-77
2022/07/21 12:32:46;;;;;;;4.03;3.08;;;28.90;94.70;;;;;;7391239;19;20145;-77
2022/07/21 12:35:26;;;;;;;3.45;3.15;;;29.00;94.60;;;;;;7390291;19;20329;-78
2022/07/21 12:37:59;;;;;;;3.15;2.75;;;28.90;94.40;;;;;;7391957;19;20139;-78
2022/07/21 12:40:25;;;;;;;5.43;3.17;;;28.70;94.80;;;;;;7394021;19;20159;-77
2022/07/21 12:43:02;;;;;;;6.18;3.05;;;28.70;94.80;;;;;;7390415;19;20139;-78
2022/07/21 12:45:28;;;;;;;3.53;2.85;;;28.80;94.20;;;;;;7389659;19;20146;-78
2022/07/21 12:48:08;;;;;;;3.15;2.78;;;28.80;93.80;;;;;;7391288;19;20191;-78
2022/07/21 12:50:35;;;;;;;3.83;3.00;;;28.70;94.20;;;;;;7392333;19;20294;-78
2022/07/21 12:53:01;;;;;;;4.43;3.70;;;28.80;94.70;;;;;;7390484;19;20454;-78
2022/07/21 12:55:26;;;;;;;4.95;3.70;;;28.80;95.30;;;;;;7391674;19;20129;-78